Terminal Aerodrome Forecast
Issued by NWS Salt Lake City, UT

Home | Current Version | Previous Version | Text Only | Print | Product List | Glossary On
Versions: 1 2 3 4 5 6 7 8 9 10 11 12 13 14 15 16 17 18 19 20 21 22 23 24 25 26 27 28
000
FTUS45 KSLC 300524
TAFSLC
TAF
KSLC 300524Z 3006/3112 16011KT P6SM SCT070 OVC100
     FM301500 17015G24KT P6SM VCSH SCT040 BKN060
     FM302200 32012G24KT 6SM -RA SCT020 BKN030
     FM310100 33013KT 6SM -RA BR SCT015 BKN030=

USA.gov is the U.S. government's official web portal to all federal, state and local government web resources and services.